Terminal Aerodrome Forecast
Issued by NWS Buffalo, NY

Home | Current Version | Previous Version | Text Only | Print | Product List | Glossary On
Versions: 1 2 3 4 5 6 7 8 9 10 11 12 13 14 15 16 17 18 19 20 21 22 23 24
153
FTUS41 KBUF 140310 AAA
TAFROC
TAF AMD
KROC 140310Z 1403/1424 VRB04KT 2SM -SN BR SCT015 OVC025
     FM140500 05006KT 1 1/2SM -SN OVC015
     FM140900 35008KT 4SM -SN OVC015
     FM141200 32008KT P6SM VCSH BKN025
     FM141600 29012KT P6SM BKN035=

USA.gov is the U.S. government's official web portal to all federal, state and local government web resources and services.